createdAt,value
2022-12-18T00:02:23.177Z,52.53
2022-12-18T00:05:11.395Z,48.83
2022-12-18T00:10:48.083Z,47.97
2022-12-18T00:16:26.721Z,52.70
2022-12-18T00:19:16.068Z,51.40
2022-12-18T00:24:51.808Z,50.33
2022-12-18T00:30:25.099Z,52.93
2022-12-18T00:36:04.268Z,50.93
2022-12-18T00:45:14.371Z,51.43
2022-12-18T00:48:02.746Z,54.90
2022-12-18T00:53:41.862Z,51.70
2022-12-18T01:05:07.811Z,50.37
2022-12-18T01:10:44.495Z,53.93
2022-12-18T01:16:24.631Z,52.93
2022-12-18T01:21:54.859Z,52.33
2022-12-18T01:24:44.001Z,53.17
2022-12-18T01:27:37.029Z,55.03
2022-12-18T01:33:15.660Z,53.70
2022-12-18T01:38:54.881Z,52.83
2022-12-18T01:42:01.827Z,53.90
2022-12-18T01:44:57.546Z,51.27
2022-12-18T01:50:37.928Z,53.33
2022-12-18T01:53:27.824Z,56.87
2022-12-18T02:01:49.778Z,57.73
2022-12-18T02:07:29.798Z,54.97
2022-12-18T02:10:21.735Z,55.00
2022-12-18T02:16:04.838Z,58.90
2022-12-18T02:21:40.161Z,62.87
2022-12-18T02:27:15.720Z,60.60
2022-12-18T02:32:57.597Z,56.80
2022-12-18T02:38:29.711Z,56.20
2022-12-18T02:41:19.417Z,58.97
2022-12-18T02:46:57.516Z,55.73
2022-12-18T02:49:49.540Z,58.77
2022-12-18T02:55:36.694Z,55.30
2022-12-18T03:01:14.270Z,54.50
2022-12-18T03:06:55.679Z,54.90
2022-12-18T03:12:34.773Z,56.87
2022-12-18T03:18:17.246Z,58.47
2022-12-18T03:23:49.660Z,58.10
2022-12-18T03:26:38.842Z,61.30
2022-12-18T03:32:18.168Z,61.00
2022-12-18T03:35:09.239Z,61.33
2022-12-18T03:37:58.094Z,61.53
2022-12-18T03:40:57.046Z,58.33
2022-12-18T03:46:33.211Z,63.13
2022-12-18T03:52:11.802Z,62.97
2022-12-18T03:55:08.096Z,60.83
2022-12-18T03:57:57.110Z,60.73
2022-12-18T04:00:45.846Z,62.30
2022-12-18T04:03:36.506Z,60.70
2022-12-18T04:09:06.371Z,60.70
2022-12-18T04:14:41.875Z,58.07
2022-12-18T04:20:18.841Z,59.77
2022-12-18T04:25:49.434Z,59.40
2022-12-18T04:29:05.673Z,59.77
2022-12-18T04:45:56.906Z,59.93
2022-12-18T05:25:42.497Z,61.73
2022-12-18T05:31:10.251Z,56.50
2022-12-18T05:36:47.158Z,51.20
2022-12-18T05:42:23.529Z,55.17
2022-12-18T05:45:12.986Z,52.33
2022-12-18T05:48:02.491Z,53.30
2022-12-18T05:50:52.335Z,52.30
2022-12-18T05:56:25.048Z,56.37
2022-12-18T06:01:54.156Z,54.97
2022-12-18T06:04:44.619Z,58.43
2022-12-18T06:07:33.359Z,61.50
2022-12-18T06:10:21.901Z,62.27
2022-12-18T06:15:58.245Z,63.00
2022-12-18T06:21:34.448Z,62.73
2022-12-18T06:24:23.953Z,62.23
2022-12-18T06:29:53.847Z,57.80
2022-12-18T06:32:42.840Z,55.70
2022-12-18T06:35:32.061Z,56.13
2022-12-18T06:41:03.923Z,52.77
2022-12-18T06:43:58.110Z,52.20
2022-12-18T06:49:28.803Z,54.80
2022-12-18T06:54:57.653Z,58.17
2022-12-18T06:57:46.766Z,54.73
2022-12-18T07:06:02.250Z,50.70
2022-12-18T07:11:37.363Z,53.97
2022-12-18T07:14:25.471Z,52.23
2022-12-18T07:20:08.079Z,57.80
2022-12-18T07:25:40.691Z,52.27
2022-12-18T07:31:16.512Z,51.70
2022-12-18T07:39:34.366Z,49.83
2022-12-18T07:42:34.154Z,50.60
2022-12-18T07:48:08.243Z,52.17
2022-12-18T07:53:44.818Z,54.63
2022-12-18T07:59:15.014Z,52.60
2022-12-18T08:02:05.078Z,47.83
2022-12-18T08:07:37.112Z,45.53
2022-12-18T08:13:17.787Z,42.07
2022-12-18T08:18:46.386Z,44.60
2022-12-18T08:24:24.370Z,42.67
2022-12-18T08:30:03.984Z,46.60
2022-12-18T08:32:54.903Z,50.13
2022-12-18T08:38:30.373Z,43.87
2022-12-18T08:41:19.812Z,48.73
2022-12-18T08:44:31.263Z,43.67
2022-12-18T08:47:19.561Z,44.13
2022-12-18T08:52:49.554Z,46.97
2022-12-18T08:55:38.663Z,46.13
2022-12-18T08:58:27.412Z,43.17
2022-12-18T09:01:18.226Z,42.87
2022-12-18T09:06:56.124Z,45.80
2022-12-18T09:12:30.955Z,42.03
2022-12-18T09:23:29.263Z,45.10
2022-12-18T09:28:59.213Z,43.90
2022-12-18T09:31:47.911Z,45.43
2022-12-18T09:37:18.084Z,43.70
2022-12-18T09:42:58.257Z,49.07
2022-12-18T09:48:44.777Z,45.33
2022-12-18T09:54:21.460Z,42.03
2022-12-18T09:59:59.181Z,45.90
2022-12-18T10:08:19.686Z,47.50
2022-12-18T10:14:21.364Z,45.17
2022-12-18T10:32:23.445Z,44.77
2022-12-18T10:38:08.924Z,45.50
2022-12-18T10:43:43.927Z,47.47
2022-12-18T10:49:30.956Z,47.17
2022-12-18T10:55:04.316Z,44.57
2022-12-18T11:11:09.839Z,50.23
2022-12-18T11:17:24.927Z,51.10
2022-12-18T11:23:09.623Z,50.70
2022-12-18T11:28:53.030Z,48.90
2022-12-18T11:31:41.468Z,48.57
2022-12-18T11:37:20.781Z,49.23
2022-12-18T11:42:59.413Z,47.90
2022-12-18T11:48:42.713Z,47.67
2022-12-18T11:54:17.209Z,47.10
2022-12-18T12:02:47.653Z,52.10
2022-12-18T12:08:38.827Z,46.07
2022-12-18T12:14:30.549Z,48.63
2022-12-18T12:17:24.221Z,52.70
2022-12-18T12:23:04.330Z,47.80
2022-12-18T12:28:48.918Z,49.03
2022-12-18T12:34:24.765Z,49.73
2022-12-18T12:40:40.902Z,47.53
2022-12-18T12:48:41.379Z,46.83
2022-12-18T12:54:18.366Z,48.73
2022-12-18T12:59:55.458Z,46.90
2022-12-18T13:05:41.887Z,49.93
2022-12-18T13:08:35.962Z,52.90
2022-12-18T13:12:00.451Z,45.70
2022-12-18T13:18:06.155Z,47.57
2022-12-18T13:23:48.464Z,48.27
2022-12-18T13:29:44.503Z,47.90
2022-12-18T13:32:32.993Z,48.73
2022-12-18T13:38:55.732Z,51.00
2022-12-18T13:44:40.289Z,46.17
2022-12-18T13:50:21.831Z,45.43
2022-12-18T13:53:18.748Z,47.47
2022-12-18T14:01:49.879Z,48.03
2022-12-18T14:07:23.382Z,50.40
2022-12-18T14:13:08.183Z,48.37
2022-12-18T14:16:01.556Z,46.83
2022-12-18T14:21:40.664Z,47.10
2022-12-18T14:27:27.832Z,44.57
2022-12-18T14:33:29.965Z,46.67
2022-12-18T14:36:21.267Z,45.43
2022-12-18T14:39:14.603Z,46.33
2022-12-18T14:50:21.331Z,47.47
2022-12-18T14:58:56.805Z,48.37
2022-12-18T15:04:33.081Z,46.80
2022-12-18T15:10:16.943Z,45.27
2022-12-18T15:16:20.260Z,45.33
2022-12-18T15:19:12.104Z,44.87
2022-12-18T15:22:06.575Z,43.33
2022-12-18T15:30:34.081Z,42.60
2022-12-18T15:36:27.072Z,45.63
2022-12-18T15:42:30.117Z,47.63
2022-12-18T15:48:15.743Z,44.60
2022-12-18T15:54:05.878Z,47.73
2022-12-18T15:57:29.690Z,49.50
2022-12-18T16:03:07.691Z,51.70
2022-12-18T16:08:48.089Z,51.87
2022-12-18T16:14:24.718Z,50.87
2022-12-18T16:17:15.917Z,51.83
2022-12-18T16:23:10.702Z,51.03
2022-12-18T16:28:48.587Z,53.67
2022-12-18T16:34:27.736Z,50.43
2022-12-18T16:39:59.669Z,47.83
2022-12-18T16:45:37.642Z,53.07
2022-12-18T16:48:27.271Z,49.80
2022-12-18T16:51:20.341Z,51.30
2022-12-18T16:56:58.397Z,47.47
2022-12-18T17:02:36.540Z,63.17
2022-12-18T17:08:14.200Z,55.87
2022-12-18T17:13:49.109Z,58.27
2022-12-18T17:16:37.410Z,58.27
2022-12-18T17:22:11.986Z,54.97
2022-12-18T17:27:48.790Z,54.43
2022-12-18T17:33:26.974Z,57.40
2022-12-18T17:39:05.953Z,63.80
2022-12-18T17:44:37.840Z,65.80
2022-12-18T17:50:09.209Z,66.90
2022-12-18T17:52:58.548Z,61.33
2022-12-18T17:58:45.932Z,68.17
2022-12-18T18:04:23.913Z,63.30
2022-12-18T18:10:27.969Z,66.37
2022-12-18T18:16:03.905Z,73.63
2022-12-18T18:21:42.406Z,61.33
2022-12-18T18:27:38.694Z,68.27
2022-12-18T18:33:12.324Z,59.17
2022-12-18T18:38:48.497Z,58.17
2022-12-18T18:44:26.665Z,63.23
2022-12-18T18:50:07.052Z,62.03
2022-12-18T18:55:43.571Z,63.53
2022-12-18T18:58:32.142Z,63.70
2022-12-18T19:04:05.471Z,59.33
2022-12-18T19:09:40.386Z,59.67
2022-12-18T19:12:47.273Z,61.37
2022-12-18T19:15:36.084Z,65.73
2022-12-18T19:18:24.292Z,57.63
2022-12-18T19:23:54.514Z,66.70
2022-12-18T19:29:28.530Z,63.97
2022-12-18T19:35:05.288Z,56.97
2022-12-18T19:40:45.351Z,54.80
2022-12-18T19:43:35.775Z,60.23
2022-12-18T19:46:24.985Z,60.40
2022-12-18T19:52:02.511Z,67.30
2022-12-18T19:57:39.303Z,58.07
2022-12-18T20:03:19.889Z,61.63
2022-12-18T20:06:09.195Z,62.87
2022-12-18T20:11:46.419Z,65.07
2022-12-18T20:17:17.307Z,64.50
2022-12-18T20:23:01.957Z,58.10
2022-12-18T20:28:42.820Z,58.50
2022-12-18T20:36:52.237Z,61.00
2022-12-18T20:42:28.362Z,66.10
2022-12-18T20:48:07.957Z,61.37
2022-12-18T20:56:43.756Z,66.80
2022-12-18T21:02:22.825Z,68.87
2022-12-18T21:08:04.189Z,62.00
2022-12-18T21:13:42.827Z,61.50
2022-12-18T21:16:31.417Z,68.50
2022-12-18T21:24:43.084Z,63.57
2022-12-18T21:27:31.819Z,61.30
2022-12-18T21:30:20.905Z,60.00
2022-12-18T21:38:45.664Z,62.90
2022-12-18T21:41:53.024Z,66.67
2022-12-18T21:47:35.987Z,64.87
2022-12-18T21:53:11.370Z,59.77
2022-12-18T21:58:57.012Z,58.37
2022-12-18T22:01:38.841Z,67.73
2022-12-18T22:04:27.938Z,64.23
2022-12-18T22:07:16.910Z,64.83
2022-12-18T22:10:06.092Z,71.07
2022-12-18T22:15:43.295Z,68.07
2022-12-18T22:18:31.793Z,70.27
2022-12-18T22:24:16.025Z,66.57
2022-12-18T22:27:04.066Z,74.40
2022-12-18T22:32:40.541Z,66.67
2022-12-18T22:35:29.912Z,70.43
2022-12-18T22:40:57.528Z,66.93
2022-12-18T22:43:47.135Z,67.77
2022-12-18T22:46:37.955Z,62.40
2022-12-18T22:49:26.961Z,64.97
2022-12-18T22:52:15.418Z,65.67
2022-12-18T22:57:54.730Z,72.17
2022-12-18T23:03:24.021Z,65.83
2022-12-18T23:06:12.601Z,65.97
2022-12-18T23:11:42.814Z,67.20
2022-12-18T23:17:14.317Z,69.50
2022-12-18T23:20:02.500Z,69.37
2022-12-18T23:25:41.270Z,68.10
2022-12-18T23:34:04.817Z,68.73
2022-12-18T23:39:34.402Z,61.87
2022-12-18T23:45:09.383Z,69.57
2022-12-18T23:47:57.178Z,67.17
2022-12-18T23:53:46.942Z,67.73
2022-12-18T23:56:36.180Z,64.80
